createdAt,value
2019-01-19T00:01:32.979Z,-0.69
2019-01-19T00:05:26.804Z,-0.83
2019-01-19T00:08:28.683Z,-0.81
2019-01-19T00:12:11.813Z,-0.87
2019-01-19T00:15:34.992Z,-0.88
2019-01-19T00:19:21.797Z,-1.07
2019-01-19T00:23:06.091Z,-1.35
2019-01-19T00:26:20.489Z,-1.38
2019-01-19T00:29:15.481Z,-1.58
2019-01-19T00:32:04.533Z,-1.69
2019-01-19T00:35:49.496Z,-1.83
2019-01-19T00:39:01.791Z,-1.84
2019-01-19T00:43:00.189Z,-1.95
2019-01-19T00:46:20.403Z,-2.07
2019-01-19T00:49:24.490Z,-2.13
2019-01-19T00:52:40.369Z,-2.25
2019-01-19T00:56:06.540Z,-2.29
2019-01-19T00:58:58.435Z,-2.33
2019-01-19T01:02:25.736Z,-2.39
2019-01-19T01:05:32.974Z,-2.47
2019-01-19T01:09:01.814Z,-2.51
2019-01-19T01:12:17.562Z,-2.55
2019-01-19T01:15:55.150Z,-2.59
2019-01-19T01:19:36.004Z,-2.70
2019-01-19T01:23:21.547Z,-2.84
2019-01-19T01:26:48.367Z,-2.91
2019-01-19T01:30:26.267Z,-2.99
2019-01-19T01:34:05.330Z,-3.00
2019-01-19T01:37:33.944Z,-3.19
2019-01-19T01:40:41.497Z,-3.27
2019-01-19T01:44:18.509Z,-3.32
2019-01-19T01:47:52.118Z,-3.38
2019-01-19T01:51:15.050Z,-3.32
2019-01-19T01:54:44.489Z,-3.29
2019-01-19T01:58:05.716Z,-3.35
2019-01-19T03:03:10.371Z,-3.93
2019-01-19T03:05:56.897Z,-3.82
2019-01-19T03:09:16.848Z,-3.80
2019-01-19T03:12:53.305Z,-3.72
2019-01-19T03:16:25.544Z,-3.60
2019-01-19T03:19:40.365Z,-3.53
2019-01-19T03:23:17.843Z,-3.45
2019-01-19T03:26:25.176Z,-3.37
2019-01-19T03:29:37.015Z,-3.28
2019-01-19T03:32:51.235Z,-3.26
2019-01-19T03:36:19.300Z,-3.20
2019-01-19T03:39:48.141Z,-3.18
2019-01-19T03:43:09.157Z,-3.21
2019-01-19T03:46:41.738Z,-3.25
2019-01-19T03:50:02.605Z,-3.29
2019-01-19T03:53:39.468Z,-3.27
2019-01-19T03:56:54.192Z,-3.25
2019-01-19T04:00:22.244Z,-3.17
2019-01-19T04:03:56.866Z,-3.11
2019-01-19T04:07:03.078Z,-3.10
2019-01-19T04:10:13.379Z,-3.03
2019-01-19T04:13:52.282Z,-2.95
2019-01-19T04:17:23.640Z,-2.87
2019-01-19T04:20:25.193Z,-2.69
2019-01-19T04:23:02.005Z,-2.63
2019-01-19T04:26:14.790Z,-2.63
2019-01-19T04:28:46.457Z,-2.63
2019-01-19T04:31:17.080Z,-2.64
2019-01-19T04:33:48.425Z,-2.66
2019-01-19T04:36:21.672Z,-2.68
2019-01-19T04:38:53.029Z,-2.71
2019-01-19T04:41:23.697Z,-2.71
2019-01-19T04:43:54.379Z,-2.73
2019-01-19T04:46:25.346Z,-2.77
2019-01-19T04:48:55.985Z,-2.81
2019-01-19T04:51:26.646Z,-2.87
2019-01-19T04:53:57.294Z,-2.91
2019-01-19T04:56:28.695Z,-2.92
2019-01-19T04:58:59.756Z,-2.89
2019-01-19T05:01:30.697Z,-2.86
2019-01-19T05:04:02.252Z,-2.87
2019-01-19T05:06:32.575Z,-2.83
2019-01-19T05:09:05.734Z,-2.84
2019-01-19T05:11:37.066Z,-2.87
2019-01-19T05:14:42.485Z,-2.91
2019-01-19T05:17:13.911Z,-3.01
2019-01-19T05:19:44.954Z,-3.11
2019-01-19T05:22:15.249Z,-3.19
2019-01-19T05:24:46.585Z,-3.26
2019-01-19T05:27:18.165Z,-3.32
2019-01-19T05:29:49.460Z,-3.29
2019-01-19T05:32:20.870Z,-3.31
2019-01-19T05:34:52.044Z,-3.32
2019-01-19T05:37:23.366Z,-3.34
2019-01-19T05:39:54.796Z,-3.35
2019-01-19T05:42:26.156Z,-3.39
2019-01-19T05:44:56.795Z,-3.41
2019-01-19T05:47:27.469Z,-3.40
2019-01-19T05:49:58.461Z,-3.40
2019-01-19T05:52:29.496Z,-3.36
2019-01-19T05:55:00.234Z,-3.37
2019-01-19T05:57:31.277Z,-3.42
2019-01-19T06:00:03.017Z,-3.44
2019-01-19T06:02:34.418Z,-3.38
2019-01-19T06:05:05.735Z,-3.27
2019-01-19T06:07:36.984Z,-3.24
2019-01-19T06:10:10.366Z,-3.13
2019-01-19T06:12:40.958Z,-3.13
2019-01-19T06:15:14.053Z,-3.15
2019-01-19T06:17:45.551Z,-3.16
2019-01-19T06:20:17.666Z,-3.22
2019-01-19T06:22:48.869Z,-3.23
2019-01-19T06:25:19.889Z,-3.15
2019-01-19T06:27:50.180Z,-3.07
2019-01-19T06:30:23.512Z,-3.00
2019-01-19T06:32:54.919Z,-2.90
2019-01-19T06:35:25.513Z,-2.79
2019-01-19T06:37:56.297Z,-2.71
2019-01-19T06:40:27.293Z,-2.67
2019-01-19T06:42:58.299Z,-2.59
2019-01-19T06:45:30.473Z,-2.54
2019-01-19T06:48:01.861Z,-2.53
2019-01-19T06:50:32.575Z,-2.56
2019-01-19T06:53:03.586Z,-2.57
2019-01-19T06:55:36.651Z,-2.55
2019-01-19T06:58:08.031Z,-2.48
2019-01-19T07:00:39.705Z,-2.45
2019-01-19T07:03:10.738Z,-2.41
2019-01-19T07:05:42.058Z,-2.38
2019-01-19T07:08:13.405Z,-2.39
2019-01-19T07:10:45.093Z,-2.39
2019-01-19T07:13:16.524Z,-2.37
2019-01-19T07:15:47.561Z,-2.35
2019-01-19T07:18:18.609Z,-2.28
2019-01-19T07:20:50.278Z,-2.26
2019-01-19T07:23:20.968Z,-2.14
2019-01-19T07:25:52.485Z,-2.15
2019-01-19T07:28:23.611Z,-2.08
2019-01-19T07:30:54.320Z,-1.99
2019-01-19T07:33:25.694Z,-1.97
2019-01-19T07:36:08.990Z,-1.87
2019-01-19T07:38:40.049Z,-1.79
2019-01-19T07:41:10.681Z,-1.76
2019-01-19T07:43:42.030Z,-1.75
2019-01-19T07:46:13.812Z,-1.66
2019-01-19T07:48:44.823Z,-1.56
2019-01-19T07:51:25.776Z,-1.57
2019-01-19T07:53:57.141Z,-1.48
2019-01-19T07:56:27.780Z,-1.52
2019-01-19T07:58:58.833Z,-1.43
2019-01-19T08:01:30.581Z,-1.32
2019-01-19T08:04:01.633Z,-1.23
2019-01-19T08:06:32.661Z,-1.32
2019-01-19T08:09:03.882Z,-1.20
2019-01-19T08:11:34.459Z,-1.17
2019-01-19T08:14:05.534Z,-1.18
2019-01-19T08:16:55.779Z,-1.28
2019-01-19T08:19:26.807Z,-0.95
2019-01-19T08:21:57.849Z,-0.82
2019-01-19T08:24:28.976Z,-0.71
2019-01-19T08:27:00.429Z,-0.45
2019-01-19T08:29:47.862Z,-0.60
2019-01-19T08:32:18.926Z,-0.64
2019-01-19T08:34:50.053Z,-0.46
2019-01-19T08:37:24.503Z,-0.36
2019-01-19T08:39:59.595Z,-0.21
2019-01-19T08:43:21.468Z,-0.41
2019-01-19T08:45:52.994Z,-0.62
2019-01-19T08:48:24.604Z,-0.46
2019-01-19T08:50:57.134Z,-0.38
2019-01-19T08:53:28.180Z,-0.36
2019-01-19T08:55:59.160Z,-0.48
2019-01-19T08:58:30.856Z,-0.49
2019-01-19T09:01:02.285Z,-0.44
2019-01-19T09:03:43.073Z,-0.17
2019-01-19T09:06:13.867Z,-0.03
2019-01-19T09:08:46.792Z,0.08
2019-01-19T09:47:05.566Z,1.52
2019-01-19T09:49:36.232Z,1.63
2019-01-19T09:52:06.886Z,1.23
2019-01-19T09:54:37.517Z,0.85
2019-01-19T09:57:08.844Z,0.54
2019-01-19T09:59:39.173Z,0.41
2019-01-19T10:02:42.594Z,0.66
2019-01-19T10:05:17.683Z,1.00
2019-01-19T10:07:48.999Z,1.31
2019-01-19T10:10:20.105Z,1.21
2019-01-19T10:12:51.258Z,0.86
2019-01-19T10:15:21.918Z,1.14
2019-01-19T10:17:53.249Z,1.51
2019-01-19T10:20:25.704Z,0.65
2019-01-19T10:22:56.334Z,0.52
2019-01-19T10:25:27.691Z,0.76
2019-01-19T10:27:58.784Z,0.84
2019-01-19T10:30:29.222Z,1.26
2019-01-19T10:33:00.790Z,1.49
2019-01-19T10:35:32.139Z,1.25
2019-01-19T10:38:03.309Z,1.14
2019-01-19T10:40:33.954Z,1.36
2019-01-19T10:43:04.660Z,1.37
2019-01-19T10:45:35.346Z,1.84
2019-01-19T10:48:06.938Z,2.27
2019-01-19T10:50:37.568Z,1.89
2019-01-19T10:53:08.638Z,2.25
2019-01-19T10:55:40.139Z,1.39
2019-01-19T10:58:11.127Z,1.05
2019-01-19T11:00:42.159Z,1.37
2019-01-19T11:03:13.878Z,1.83
2019-01-19T11:05:45.127Z,1.98
2019-01-19T11:08:16.815Z,1.37
2019-01-19T11:10:47.111Z,1.15
2019-01-19T11:13:18.422Z,1.34
2019-01-19T11:15:50.069Z,1.13
2019-01-19T11:18:21.804Z,1.60
2019-01-19T11:20:52.853Z,2.43
2019-01-19T11:23:23.541Z,2.42
2019-01-19T11:25:54.324Z,1.15
2019-01-19T11:28:24.639Z,1.57
2019-01-19T11:31:04.673Z,2.26
2019-01-19T11:33:35.727Z,2.62
2019-01-19T11:36:06.887Z,3.13
2019-01-19T11:38:38.229Z,3.25
2019-01-19T11:41:09.516Z,3.45
2019-01-19T11:43:40.504Z,3.77
2019-01-19T11:46:10.811Z,3.78
2019-01-19T11:48:47.009Z,3.12
2019-01-19T11:51:18.042Z,3.65
2019-01-19T11:54:08.426Z,3.46
2019-01-19T11:56:39.757Z,3.22
2019-01-19T11:59:11.859Z,3.81
2019-01-19T12:01:51.838Z,3.99
2019-01-19T12:04:22.707Z,3.74
2019-01-19T12:06:53.592Z,3.66
2019-01-19T12:09:24.706Z,4.00
2019-01-19T12:12:01.284Z,4.37
2019-01-19T12:14:42.974Z,3.92
2019-01-19T12:17:13.731Z,4.20
2019-01-19T12:19:44.425Z,4.49
2019-01-19T12:22:16.051Z,3.83
2019-01-19T12:24:50.444Z,2.51
2019-01-19T12:27:40.393Z,2.47
2019-01-19T12:30:16.294Z,2.49
2019-01-19T12:32:47.403Z,2.45
2019-01-19T12:35:18.640Z,3.28
2019-01-19T12:37:49.616Z,2.33
2019-01-19T12:40:22.720Z,2.26
2019-01-19T12:42:57.081Z,1.43
2019-01-19T12:45:35.430Z,2.09
2019-01-19T12:48:06.849Z,2.63
2019-01-19T12:50:38.314Z,3.29
2019-01-19T12:53:10.166Z,4.20
2019-01-19T12:55:42.732Z,4.36
2019-01-19T12:58:13.412Z,3.65
2019-01-19T13:00:45.472Z,3.59
2019-01-19T13:03:17.374Z,3.30
2019-01-19T13:06:32.021Z,2.90
2019-01-19T13:09:12.622Z,3.67
2019-01-19T13:12:40.161Z,4.07
2019-01-19T13:16:35.596Z,3.52
2019-01-19T13:19:45.549Z,3.49
2019-01-19T13:23:12.337Z,3.62
2019-01-19T13:26:51.341Z,4.81
2019-01-19T13:30:07.696Z,6.82
2019-01-19T13:33:31.452Z,5.66
2019-01-19T13:36:39.815Z,4.31
2019-01-19T13:40:16.148Z,3.20
2019-01-19T13:44:13.603Z,3.20
2019-01-19T13:47:26.949Z,2.71
2019-01-19T13:51:22.719Z,2.72
2019-01-19T13:54:49.626Z,2.76
2019-01-19T13:58:14.389Z,3.31
2019-01-19T14:01:44.645Z,3.89
2019-01-19T14:05:05.529Z,4.08
2019-01-19T14:08:22.655Z,5.04
2019-01-19T14:11:57.318Z,4.22
2019-01-19T14:15:22.072Z,3.88
2019-01-19T14:19:18.830Z,2.98
2019-01-19T14:22:41.328Z,3.85
2019-01-19T14:25:53.728Z,3.48
2019-01-19T14:29:11.218Z,3.65
2019-01-19T14:32:41.536Z,3.61
2019-01-19T14:35:56.477Z,3.07
2019-01-19T14:39:23.618Z,3.26
2019-01-19T14:42:25.894Z,3.05
2019-01-19T14:45:28.481Z,2.70
2019-01-19T14:48:47.723Z,2.59
2019-01-19T14:52:27.614Z,2.51
2019-01-19T14:55:44.352Z,2.32
2019-01-19T14:59:12.785Z,2.52
2019-01-19T15:02:49.617Z,2.44
2019-01-19T15:05:38.119Z,2.45
2019-01-19T15:09:03.772Z,2.57
2019-01-19T15:12:50.201Z,2.49
2019-01-19T15:15:54.083Z,2.53
2019-01-19T15:19:35.731Z,3.08
2019-01-19T15:23:02.423Z,2.14
2019-01-19T15:26:25.251Z,1.58
2019-01-19T15:29:36.829Z,1.16
2019-01-19T15:33:04.147Z,0.86
2019-01-19T15:36:35.934Z,0.77
2019-01-19T15:40:03.423Z,0.50
2019-01-19T15:43:31.559Z,0.28
2019-01-19T15:47:12.798Z,0.10
2019-01-19T15:50:37.493Z,-0.04
2019-01-19T15:53:36.443Z,-0.14
2019-01-19T15:56:50.302Z,-0.27
2019-01-19T16:00:27.712Z,-0.38
2019-01-19T16:04:06.442Z,-0.56
2019-01-19T16:07:35.119Z,-0.72
2019-01-19T16:11:12.023Z,-0.82
2019-01-19T16:14:50.907Z,-0.95
2019-01-19T16:18:39.043Z,-1.09
2019-01-19T16:21:43.618Z,-1.24
2019-01-19T16:25:10.013Z,-1.34
2019-01-19T16:28:49.505Z,-1.34
2019-01-19T16:32:15.360Z,-1.48
2019-01-19T16:35:40.680Z,-1.60
2019-01-19T16:39:11.106Z,-1.67
2019-01-19T16:42:40.925Z,-1.84
2019-01-19T16:46:18.792Z,-1.95
2019-01-19T16:49:20.322Z,-2.03
2019-01-19T16:52:42.115Z,-2.04
2019-01-19T16:55:50.589Z,-2.05
2019-01-19T16:59:37.802Z,-2.11
2019-01-19T17:03:27.440Z,-2.13
2019-01-19T17:07:07.191Z,-2.13
2019-01-19T17:09:52.223Z,-2.12
2019-01-19T17:13:08.631Z,-2.15
2019-01-19T17:16:22.050Z,-2.19
2019-01-19T17:19:46.491Z,-2.21
2019-01-19T17:23:04.816Z,-2.23
2019-01-19T17:26:11.699Z,-2.29
2019-01-19T17:29:54.516Z,-2.30
2019-01-19T17:33:05.732Z,-2.28
2019-01-19T17:36:18.720Z,-2.27
2019-01-19T17:39:41.076Z,-2.27
2019-01-19T17:42:56.411Z,-2.26
2019-01-19T17:46:29.473Z,-2.19
2019-01-19T17:49:57.141Z,-2.17
2019-01-19T17:53:05.639Z,-2.25
2019-01-19T17:56:41.039Z,-2.37
2019-01-19T18:00:23.134Z,-2.44
2019-01-19T18:03:19.546Z,-2.42
2019-01-19T18:06:37.252Z,-2.42
2019-01-19T18:10:13.343Z,-2.42
2019-01-19T18:13:30.193Z,-2.41
2019-01-19T18:17:08.088Z,-2.48
2019-01-19T18:21:11.550Z,-2.41
2019-01-19T18:24:50.926Z,-2.29
2019-01-19T18:28:11.487Z,-2.30
2019-01-19T18:31:48.242Z,-2.37
2019-01-19T18:34:59.893Z,-2.46
2019-01-19T18:38:38.281Z,-2.54
2019-01-19T18:42:03.057Z,-2.60
2019-01-19T18:45:15.134Z,-2.63
2019-01-19T18:48:10.207Z,-2.58
2019-01-19T18:51:34.091Z,-2.51
2019-01-19T18:55:22.319Z,-2.39
2019-01-19T18:58:42.871Z,-2.25
2019-01-19T19:02:07.155Z,-2.07
2019-01-19T19:05:38.308Z,-2.05
2019-01-19T19:08:54.489Z,-2.09
2019-01-19T19:12:26.332Z,-2.14
2019-01-19T19:15:38.060Z,-2.08
2019-01-19T19:19:05.216Z,-2.00
2019-01-19T19:22:23.616Z,-1.86
2019-01-19T19:25:50.580Z,-1.77
2019-01-19T19:29:14.785Z,-1.73
2019-01-19T19:32:23.770Z,-1.72
2019-01-19T19:36:06.628Z,-1.73
2019-01-19T19:39:39.856Z,-1.74
2019-01-19T19:42:52.430Z,-1.75
2019-01-19T19:46:29.562Z,-1.77
2019-01-19T19:50:17.993Z,-1.80
2019-01-19T19:52:49.347Z,-1.84
2019-01-19T19:55:17.320Z,-1.91
2019-01-19T19:57:50.171Z,-1.95
2019-01-19T20:00:21.016Z,-2.00
2019-01-19T20:02:52.635Z,-2.03
2019-01-19T20:05:24.753Z,-2.07
2019-01-19T20:07:56.230Z,-2.15
2019-01-19T20:10:26.893Z,-2.15
2019-01-19T20:12:58.098Z,-2.16
2019-01-19T20:15:29.300Z,-2.20
2019-01-19T20:18:00.997Z,-2.27
2019-01-19T20:20:32.520Z,-2.36
2019-01-19T20:23:03.933Z,-2.43
2019-01-19T20:25:36.031Z,-2.60
2019-01-19T20:28:07.325Z,-2.63
2019-01-19T20:30:38.332Z,-2.77
2019-01-19T20:33:10.998Z,-2.83
2019-01-19T20:35:41.930Z,-2.89
2019-01-19T20:38:12.658Z,-3.00
2019-01-19T20:40:43.728Z,-3.10
2019-01-19T20:43:14.787Z,-3.21
2019-01-19T20:45:47.820Z,-3.27
2019-01-19T20:48:19.912Z,-3.24
2019-01-19T20:50:50.553Z,-3.23
2019-01-19T20:53:22.174Z,-3.25
2019-01-19T20:55:54.158Z,-3.17
2019-01-19T20:58:24.828Z,-3.15
2019-01-19T21:00:55.141Z,-3.20
2019-01-19T21:03:26.877Z,-3.26
2019-01-19T21:05:57.541Z,-3.18
2019-01-19T21:08:28.266Z,-3.20
2019-01-19T21:11:00.226Z,-3.16
2019-01-19T21:13:30.866Z,-3.17
2019-01-19T21:16:01.497Z,-3.24
2019-01-19T21:18:32.571Z,-3.24
2019-01-19T21:21:03.958Z,-3.30
2019-01-19T21:23:41.687Z,-3.34
2019-01-19T21:26:12.925Z,-3.34
2019-01-19T21:28:45.643Z,-3.37
2019-01-19T21:31:16.534Z,-3.39
2019-01-19T21:33:48.568Z,-3.44
2019-01-19T21:36:19.537Z,-3.48
2019-01-19T21:38:50.466Z,-3.53
2019-01-19T21:41:23.987Z,-3.51
2019-01-19T21:43:54.606Z,-3.51
2019-01-19T21:46:25.659Z,-3.57
2019-01-19T21:48:57.684Z,-3.64
2019-01-19T21:51:29.035Z,-3.68
2019-01-19T21:54:00.431Z,-3.66
2019-01-19T21:56:32.254Z,-3.70
2019-01-19T21:59:03.942Z,-3.70
2019-01-19T22:01:35.281Z,-3.72
2019-01-19T22:04:07.234Z,-3.71
2019-01-19T22:06:38.375Z,-3.77
2019-01-19T22:09:09.858Z,-3.74
2019-01-19T22:11:41.179Z,-3.75
2019-01-19T22:14:12.281Z,-3.83
2019-01-19T22:16:44.012Z,-3.86
2019-01-19T22:19:15.974Z,-3.87
2019-01-19T22:21:47.396Z,-3.86
2019-01-19T22:24:18.851Z,-3.79
2019-01-19T22:26:52.565Z,-3.80
2019-01-19T22:29:23.913Z,-3.78
2019-01-19T22:31:54.623Z,-3.84
2019-01-19T22:34:27.486Z,-3.85
2019-01-19T22:36:58.462Z,-3.85
2019-01-19T22:39:29.499Z,-3.85
2019-01-19T22:42:00.257Z,-3.85
2019-01-19T22:44:30.676Z,-3.91
2019-01-19T22:47:03.153Z,-3.94
2019-01-19T22:49:33.878Z,-3.94
2019-01-19T22:52:04.910Z,-3.92
2019-01-19T22:54:37.232Z,-3.97
2019-01-19T22:57:08.896Z,-3.97
2019-01-19T22:59:39.666Z,-3.88
2019-01-19T23:02:14.065Z,-3.92
2019-01-19T23:04:45.232Z,-4.05
2019-01-19T23:07:16.960Z,-4.09
2019-01-19T23:09:48.932Z,-4.10
2019-01-19T23:12:20.637Z,-4.09
2019-01-19T23:14:52.028Z,-4.06
2019-01-19T23:17:23.614Z,-4.01
2019-01-19T23:19:56.650Z,-4.00
2019-01-19T23:22:27.962Z,-3.96
2019-01-19T23:24:59.871Z,-3.91
2019-01-19T23:27:32.612Z,-3.85
2019-01-19T23:30:03.580Z,-3.86
2019-01-19T23:32:35.448Z,-3.85
2019-01-19T23:35:07.225Z,-3.87
2019-01-19T23:37:38.754Z,-3.89
2019-01-19T23:40:09.926Z,-3.88
2019-01-19T23:42:47.144Z,-3.86
2019-01-19T23:45:13.065Z,-3.88
2019-01-19T23:47:44.078Z,-3.80
2019-01-19T23:50:15.377Z,-3.79
2019-01-19T23:52:46.371Z,-3.86
2019-01-19T23:55:17.772Z,-3.87
2019-01-19T23:57:49.223Z,-3.91
